UAL741 KDEN-KBZN
Flight info
| Callsign | UAL741 |
|---|---|
| Flight time | 1h 22m |
| Altitude | 38000 |
| Route | DDRTH1 DDRTH RIW TOCUD LOSST1 |
| Aircraft | A320/M-SDE3FGHIRWY/LB1 |
Departure
| Time | 2026-04-25 23:43 |
|---|---|
| Airport | Denver International Airport (KDEN) |
Arrival
| Time | 2026-04-26 01:05 |
|---|---|
| Airport | Bozeman Yellowstone International Airport (KBZN) |
| Time | Latitude | Longitude | Altitude | Speed | Heading |
|---|---|---|---|---|---|
| 2026-04-25 23:18 | 39.85930 | -104.66914 | 5378 ft | 0 kts | 180° |
| 2026-04-25 23:32 | 39.85936 | -104.66914 | 5378 ft | 2 kts | 180° |
| 2026-04-25 23:32 | 39.85950 | -104.66914 | 5378 ft | 2 kts | 180° |
| 2026-04-25 23:32 | 39.85965 | -104.66914 | 5378 ft | 2 kts | 180° |
| 2026-04-25 23:32 | 39.85980 | -104.66914 | 5378 ft | 2 kts | 180° |
| 2026-04-25 23:33 | 39.85995 | -104.66914 | 5378 ft | 2 kts | 180° |
| 2026-04-25 23:33 | 39.86010 | -104.66914 | 5378 ft | 2 kts | 180° |
| 2026-04-25 23:33 | 39.86021 | -104.66914 | 5377 ft | 0 kts | 180° |
| 2026-04-25 23:35 | 39.86012 | -104.66920 | 5378 ft | 3 kts | 237° |
| 2026-04-25 23:36 | 39.86042 | -104.66997 | 5377 ft | 11 kts | 301° |
| 2026-04-25 23:36 | 39.86063 | -104.67095 | 5377 ft | 10 kts | 271° |
| 2026-04-25 23:36 | 39.86063 | -104.67182 | 5377 ft | 9 kts | 269° |
| 2026-04-25 23:36 | 39.86064 | -104.67310 | 5377 ft | 19 kts | 270° |
| 2026-04-25 23:37 | 39.86066 | -104.67489 | 5377 ft | 18 kts | 271° |
| 2026-04-25 23:37 | 39.86068 | -104.67645 | 5377 ft | 16 kts | 270° |
| 2026-04-25 23:37 | 39.86068 | -104.67807 | 5377 ft | 21 kts | 270° |
| 2026-04-25 23:37 | 39.86069 | -104.68004 | 5377 ft | 19 kts | 270° |
| 2026-04-25 23:38 | 39.86046 | -104.68159 | 5377 ft | 16 kts | 243° |
| 2026-04-25 23:38 | 39.86029 | -104.68304 | 5373 ft | 15 kts | 269° |
| 2026-04-25 23:38 | 39.85988 | -104.68395 | 5371 ft | 10 kts | 188° |
| 2026-04-25 23:38 | 39.85918 | -104.68395 | 5371 ft | 10 kts | 178° |
| 2026-04-25 23:39 | 39.85817 | -104.68396 | 5371 ft | 18 kts | 181° |
| 2026-04-25 23:39 | 39.85679 | -104.68397 | 5372 ft | 18 kts | 180° |
| 2026-04-25 23:39 | 39.85558 | -104.68398 | 5372 ft | 16 kts | 180° |
| 2026-04-25 23:39 | 39.85448 | -104.68399 | 5372 ft | 18 kts | 180° |
| 2026-04-25 23:40 | 39.85321 | -104.68401 | 5372 ft | 16 kts | 180° |
| 2026-04-25 23:40 | 39.85220 | -104.68421 | 5372 ft | 13 kts | 217° |
| 2026-04-25 23:40 | 39.85205 | -104.68526 | 5372 ft | 11 kts | 270° |
| 2026-04-25 23:40 | 39.85204 | -104.68680 | 5367 ft | 23 kts | 268° |
| 2026-04-25 23:41 | 39.85200 | -104.68902 | 5353 ft | 24 kts | 269° |
| 2026-04-25 23:41 | 39.85196 | -104.69102 | 5349 ft | 21 kts | 269° |
| 2026-04-25 23:41 | 39.85201 | -104.69305 | 5337 ft | 23 kts | 272° |
| 2026-04-25 23:41 | 39.85202 | -104.69494 | 5337 ft | 16 kts | 270° |
| 2026-04-25 23:42 | 39.85212 | -104.69624 | 5337 ft | 12 kts | 299° |
| 2026-04-25 23:42 | 39.85270 | -104.69660 | 5337 ft | 8 kts | 0° |
| 2026-04-25 23:42 | 39.85393 | -104.69658 | 5336 ft | 44 kts | 0° |
| 2026-04-25 23:42 | 39.85928 | -104.69649 | 5331 ft | 108 kts | 360° |
| 2026-04-25 23:43 | 39.86882 | -104.69646 | 5330 ft | 162 kts | 360° |
| 2026-04-25 23:43 | 39.88108 | -104.69654 | 5594 ft | 184 kts | 2° |
| 2026-04-25 23:43 | 39.89393 | -104.69646 | 6174 ft | 189 kts | 4° |
| 2026-04-25 23:43 | 39.90705 | -104.69595 | 6858 ft | 189 kts | 3° |
| 2026-04-25 23:44 | 39.92001 | -104.69582 | 7473 ft | 186 kts | 2° |
| 2026-04-25 23:44 | 39.93342 | -104.69570 | 7800 ft | 197 kts | 3° |
| 2026-04-25 23:44 | 39.94751 | -104.69540 | 8066 ft | 211 kts | 3° |
| 2026-04-25 23:44 | 39.96279 | -104.69503 | 8308 ft | 228 kts | 3° |
| 2026-04-25 23:45 | 39.97947 | -104.69462 | 8578 ft | 247 kts | 3° |
| 2026-04-25 23:45 | 39.99737 | -104.69416 | 8921 ft | 264 kts | 2° |
| 2026-04-25 23:45 | 40.01625 | -104.69373 | 9268 ft | 281 kts | 2° |
| 2026-04-25 23:45 | 40.03618 | -104.69545 | 9796 ft | 292 kts | 352° |
| 2026-04-25 23:46 | 40.05610 | -104.70229 | 10402 ft | 298 kts | 341° |
| 2026-04-25 23:46 | 40.07589 | -104.71246 | 10692 ft | 312 kts | 339° |
| 2026-04-25 23:46 | 40.09613 | -104.72342 | 11074 ft | 321 kts | 339° |
| 2026-04-25 23:46 | 40.11752 | -104.73455 | 11623 ft | 323 kts | 340° |
| 2026-04-25 23:47 | 40.13855 | -104.74531 | 12159 ft | 326 kts | 339° |
| 2026-04-25 23:47 | 40.15967 | -104.75609 | 12679 ft | 329 kts | 339° |
| 2026-04-25 23:47 | 40.18128 | -104.76716 | 13179 ft | 334 kts | 339° |
| 2026-04-25 23:47 | 40.20327 | -104.77844 | 13682 ft | 337 kts | 338° |
| 2026-04-25 23:48 | 40.22523 | -104.78966 | 14233 ft | 341 kts | 338° |
| 2026-04-25 23:48 | 40.24747 | -104.80100 | 14867 ft | 341 kts | 336° |
| 2026-04-25 23:48 | 40.26953 | -104.81231 | 15528 ft | 341 kts | 335° |
| 2026-04-25 23:48 | 40.29135 | -104.82352 | 16177 ft | 341 kts | 335° |
| 2026-04-25 23:49 | 40.31342 | -104.83491 | 16800 ft | 343 kts | 335° |
| 2026-04-25 23:49 | 40.33571 | -104.84641 | 17399 ft | 345 kts | 335° |
| 2026-04-25 23:49 | 40.35827 | -104.85795 | 17995 ft | 346 kts | 334° |
| 2026-04-25 23:49 | 40.38084 | -104.86948 | 18536 ft | 348 kts | 334° |
| 2026-04-25 23:50 | 40.40353 | -104.88109 | 19171 ft | 348 kts | 334° |
| 2026-04-25 23:50 | 40.42592 | -104.89256 | 19799 ft | 348 kts | 334° |
| 2026-04-25 23:50 | 40.44843 | -104.90411 | 20339 ft | 349 kts | 333° |
| 2026-04-25 23:50 | 40.47147 | -104.91599 | 20858 ft | 352 kts | 333° |
| 2026-04-25 23:51 | 40.49427 | -104.92776 | 21355 ft | 355 kts | 333° |
| 2026-04-25 23:51 | 40.51740 | -104.93973 | 21847 ft | 358 kts | 333° |
| 2026-04-25 23:51 | 40.54082 | -104.95183 | 22335 ft | 361 kts | 333° |
| 2026-04-25 23:51 | 40.56418 | -104.96390 | 22777 ft | 364 kts | 332° |
| 2026-04-25 23:52 | 40.58789 | -104.97616 | 22958 ft | 366 kts | 332° |
| 2026-04-25 23:52 | 40.61185 | -104.98853 | 22999 ft | 365 kts | 332° |
| 2026-04-25 23:52 | 40.63554 | -105.00079 | 23020 ft | 365 kts | 332° |
| 2026-04-25 23:52 | 40.65925 | -105.01307 | 23014 ft | 366 kts | 332° |
| 2026-04-25 23:53 | 40.68307 | -105.02546 | 23281 ft | 371 kts | 332° |
| 2026-04-25 23:53 | 40.70710 | -105.03793 | 23775 ft | 371 kts | 332° |
| 2026-04-25 23:53 | 40.73139 | -105.05053 | 24197 ft | 372 kts | 332° |
| 2026-04-25 23:53 | 40.75435 | -105.06541 | 24583 ft | 368 kts | 321° |
| 2026-04-25 23:54 | 40.77428 | -105.08569 | 25002 ft | 361 kts | 310° |
| 2026-04-25 23:54 | 40.79106 | -105.11041 | 25439 ft | 358 kts | 303° |
| 2026-04-25 23:54 | 40.80659 | -105.13618 | 25866 ft | 359 kts | 302° |
| 2026-04-25 23:54 | 40.82209 | -105.16221 | 26289 ft | 360 kts | 302° |
| 2026-04-25 23:55 | 40.83752 | -105.18813 | 26698 ft | 362 kts | 302° |
| 2026-04-25 23:55 | 40.85321 | -105.21455 | 27041 ft | 366 kts | 302° |
| 2026-04-25 23:55 | 40.86891 | -105.24084 | 27454 ft | 368 kts | 302° |
| 2026-04-25 23:55 | 40.88486 | -105.26756 | 27910 ft | 367 kts | 302° |
| 2026-04-25 23:56 | 40.90059 | -105.29411 | 28329 ft | 368 kts | 302° |
| 2026-04-25 23:56 | 40.91642 | -105.32065 | 28744 ft | 368 kts | 302° |
| 2026-04-25 23:56 | 40.93225 | -105.34725 | 29149 ft | 368 kts | 302° |
| 2026-04-25 23:56 | 40.94817 | -105.37403 | 29558 ft | 369 kts | 302° |
| 2026-04-25 23:57 | 40.96409 | -105.40081 | 29983 ft | 369 kts | 302° |
| 2026-04-25 23:57 | 40.97985 | -105.42731 | 30391 ft | 369 kts | 302° |
| 2026-04-25 23:57 | 40.99578 | -105.45418 | 30794 ft | 369 kts | 301° |
| 2026-04-25 23:57 | 41.01170 | -105.48097 | 31177 ft | 370 kts | 301° |
| 2026-04-25 23:58 | 41.02750 | -105.50761 | 31546 ft | 370 kts | 301° |
| 2026-04-25 23:58 | 41.04347 | -105.53457 | 31904 ft | 371 kts | 301° |
| 2026-04-25 23:58 | 41.05950 | -105.56155 | 32247 ft | 372 kts | 301° |
| 2026-04-25 23:58 | 41.07543 | -105.58855 | 32563 ft | 373 kts | 301° |
| 2026-04-25 23:59 | 41.09142 | -105.61574 | 32860 ft | 374 kts | 301° |
| 2026-04-25 23:59 | 41.11006 | -105.64744 | 33188 ft | 376 kts | 300° |
| 2026-04-25 23:59 | 41.12660 | -105.67554 | 33540 ft | 375 kts | 300° |
| 2026-04-26 00:00 | 41.14247 | -105.70249 | 33918 ft | 373 kts | 300° |
| 2026-04-26 00:00 | 41.15839 | -105.72950 | 34276 ft | 372 kts | 300° |
| 2026-04-26 00:00 | 41.17436 | -105.75666 | 34612 ft | 371 kts | 300° |
| 2026-04-26 00:00 | 41.19016 | -105.78355 | 34938 ft | 370 kts | 299° |
| 2026-04-26 00:01 | 41.20600 | -105.81054 | 35237 ft | 369 kts | 299° |
| 2026-04-26 00:01 | 41.22178 | -105.83746 | 35518 ft | 368 kts | 299° |
| 2026-04-26 00:01 | 41.23740 | -105.86417 | 35787 ft | 368 kts | 299° |
| 2026-04-26 00:01 | 41.25309 | -105.89102 | 36048 ft | 367 kts | 299° |
| 2026-04-26 00:02 | 41.26879 | -105.91791 | 36214 ft | 367 kts | 299° |
| 2026-04-26 00:02 | 41.28452 | -105.94486 | 36327 ft | 369 kts | 299° |
| 2026-04-26 00:02 | 41.30043 | -105.97212 | 36422 ft | 371 kts | 299° |
| 2026-04-26 00:03 | 41.33221 | -106.02661 | 36677 ft | 374 kts | 299° |
| 2026-04-26 00:03 | 41.34821 | -106.05404 | 36864 ft | 375 kts | 299° |
| 2026-04-26 00:03 | 41.36410 | -106.08129 | 37057 ft | 375 kts | 299° |
| 2026-04-26 00:03 | 41.38019 | -106.10893 | 37246 ft | 375 kts | 298° |
| 2026-04-26 00:04 | 41.39608 | -106.13628 | 37372 ft | 376 kts | 298° |
| 2026-04-26 00:04 | 41.41220 | -106.16411 | 37478 ft | 376 kts | 298° |
| 2026-04-26 00:04 | 41.42810 | -106.19156 | 37573 ft | 377 kts | 298° |
| 2026-04-26 00:05 | 41.46157 | -106.24632 | 37760 ft | 383 kts | 302° |
| 2026-04-26 00:05 | 41.49902 | -106.29802 | 37944 ft | 388 kts | 306° |
| 2026-04-26 00:06 | 41.53748 | -106.34915 | 38070 ft | 390 kts | 306° |
| 2026-04-26 00:06 | 41.57616 | -106.40061 | 38038 ft | 392 kts | 306° |
| 2026-04-26 00:07 | 41.61474 | -106.45200 | 37999 ft | 392 kts | 306° |
| 2026-04-26 00:07 | 41.65344 | -106.50365 | 37963 ft | 393 kts | 306° |
| 2026-04-26 00:08 | 41.69213 | -106.55539 | 37935 ft | 392 kts | 306° |
| 2026-04-26 00:08 | 41.73088 | -106.60726 | 37914 ft | 393 kts | 306° |
| 2026-04-26 00:09 | 41.76964 | -106.65924 | 37898 ft | 393 kts | 306° |
| 2026-04-26 00:09 | 41.80842 | -106.71137 | 37882 ft | 392 kts | 306° |
| 2026-04-26 00:10 | 41.84690 | -106.76319 | 37871 ft | 392 kts | 306° |
| 2026-04-26 00:10 | 41.88540 | -106.81514 | 37870 ft | 392 kts | 306° |
| 2026-04-26 00:11 | 41.92397 | -106.86726 | 37873 ft | 392 kts | 306° |
| 2026-04-26 00:11 | 41.96249 | -106.91935 | 37869 ft | 393 kts | 306° |
| 2026-04-26 00:12 | 42.00093 | -106.97147 | 37864 ft | 393 kts | 306° |
| 2026-04-26 00:12 | 42.03954 | -107.02395 | 37865 ft | 393 kts | 306° |
| 2026-04-26 00:13 | 42.07776 | -107.07596 | 37841 ft | 393 kts | 306° |
| 2026-04-26 00:13 | 42.11693 | -107.12931 | 37833 ft | 395 kts | 306° |
| 2026-04-26 00:14 | 42.15574 | -107.18234 | 37888 ft | 397 kts | 306° |
| 2026-04-26 00:14 | 42.19444 | -107.23543 | 37951 ft | 398 kts | 306° |
| 2026-04-26 00:15 | 42.23333 | -107.28873 | 38001 ft | 398 kts | 306° |
| 2026-04-26 00:15 | 42.27234 | -107.34244 | 37997 ft | 399 kts | 306° |
| 2026-04-26 00:16 | 42.31108 | -107.39587 | 37958 ft | 399 kts | 307° |
| 2026-04-26 00:16 | 42.35027 | -107.44994 | 37925 ft | 400 kts | 307° |
| 2026-04-26 00:16 | 42.36979 | -107.47679 | 37823 ft | 400 kts | 307° |
| 2026-04-26 00:17 | 42.38920 | -107.50352 | 37821 ft | 399 kts | 306° |
| 2026-04-26 00:17 | 42.40843 | -107.53005 | 38006 ft | 397 kts | 305° |
| 2026-04-26 00:17 | 42.42767 | -107.55656 | 38048 ft | 392 kts | 305° |
| 2026-04-26 00:17 | 42.44661 | -107.58304 | 37659 ft | 389 kts | 306° |
| 2026-04-26 00:18 | 42.46553 | -107.60951 | 37797 ft | 389 kts | 307° |
| 2026-04-26 00:18 | 42.50384 | -107.66287 | 37884 ft | 396 kts | 306° |
| 2026-04-26 00:19 | 42.54283 | -107.71711 | 37887 ft | 400 kts | 306° |
| 2026-04-26 00:19 | 42.58172 | -107.77130 | 37877 ft | 401 kts | 306° |
| 2026-04-26 00:20 | 42.62080 | -107.82587 | 37888 ft | 401 kts | 306° |
| 2026-04-26 00:20 | 42.65968 | -107.88033 | 37878 ft | 400 kts | 306° |
| 2026-04-26 00:21 | 42.69838 | -107.93465 | 37872 ft | 400 kts | 306° |
| 2026-04-26 00:21 | 42.73706 | -107.98900 | 37874 ft | 400 kts | 306° |
| 2026-04-26 00:22 | 42.77592 | -108.04377 | 37863 ft | 400 kts | 306° |
| 2026-04-26 00:22 | 42.81448 | -108.09826 | 37861 ft | 400 kts | 306° |
| 2026-04-26 00:23 | 42.85296 | -108.15272 | 37873 ft | 400 kts | 306° |
| 2026-04-26 00:23 | 42.89168 | -108.20746 | 37869 ft | 399 kts | 306° |
| 2026-04-26 00:24 | 42.93022 | -108.26213 | 37873 ft | 399 kts | 306° |
| 2026-04-26 00:24 | 42.96861 | -108.31683 | 37879 ft | 399 kts | 306° |
| 2026-04-26 00:25 | 43.00717 | -108.37186 | 37878 ft | 400 kts | 306° |
| 2026-04-26 00:25 | 43.04559 | -108.42678 | 37867 ft | 401 kts | 306° |
| 2026-04-26 00:26 | 43.08274 | -108.48344 | 37869 ft | 397 kts | 303° |
| 2026-04-26 00:26 | 43.11869 | -108.54227 | 37849 ft | 399 kts | 303° |
| 2026-04-26 00:27 | 43.15445 | -108.60099 | 37889 ft | 399 kts | 303° |
| 2026-04-26 00:27 | 43.19003 | -108.65958 | 37875 ft | 399 kts | 302° |
| 2026-04-26 00:28 | 43.22559 | -108.71838 | 37918 ft | 399 kts | 303° |
| 2026-04-26 00:28 | 43.26129 | -108.77753 | 37875 ft | 400 kts | 303° |
| 2026-04-26 00:29 | 43.29685 | -108.83622 | 37876 ft | 400 kts | 303° |
| 2026-04-26 00:29 | 43.33250 | -108.89537 | 37855 ft | 402 kts | 303° |
| 2026-04-26 00:30 | 43.36803 | -108.95446 | 37858 ft | 402 kts | 302° |
| 2026-04-26 00:30 | 43.40371 | -109.01402 | 37855 ft | 401 kts | 303° |
| 2026-04-26 00:31 | 43.43923 | -109.07352 | 37858 ft | 403 kts | 303° |
| 2026-04-26 00:31 | 43.47504 | -109.13344 | 37858 ft | 403 kts | 304° |
| 2026-04-26 00:32 | 43.51064 | -109.19300 | 37877 ft | 405 kts | 303° |
| 2026-04-26 00:32 | 43.56430 | -109.28321 | 37866 ft | 405 kts | 303° |
| 2026-04-26 00:33 | 43.59999 | -109.34345 | 37876 ft | 406 kts | 304° |
| 2026-04-26 00:33 | 43.63563 | -109.40356 | 37875 ft | 407 kts | 303° |
| 2026-04-26 00:34 | 43.67152 | -109.46420 | 37869 ft | 407 kts | 303° |
| 2026-04-26 00:34 | 43.70715 | -109.52480 | 37881 ft | 405 kts | 303° |
| 2026-04-26 00:35 | 43.74267 | -109.58523 | 37856 ft | 405 kts | 303° |
| 2026-04-26 00:35 | 43.77840 | -109.64619 | 37855 ft | 407 kts | 303° |
| 2026-04-26 00:36 | 43.81446 | -109.70778 | 37835 ft | 407 kts | 303° |
| 2026-04-26 00:36 | 43.85015 | -109.76868 | 37843 ft | 408 kts | 303° |
| 2026-04-26 00:37 | 43.88592 | -109.82998 | 37847 ft | 407 kts | 303° |
| 2026-04-26 00:37 | 43.92161 | -109.89135 | 37861 ft | 408 kts | 303° |
| 2026-04-26 00:38 | 43.95713 | -109.95258 | 37891 ft | 409 kts | 303° |
| 2026-04-26 00:38 | 43.99308 | -110.01465 | 37723 ft | 409 kts | 303° |
| 2026-04-26 00:39 | 44.01092 | -110.04531 | 37502 ft | 406 kts | 304° |
| 2026-04-26 00:39 | 44.02974 | -110.07495 | 37280 ft | 407 kts | 308° |
| 2026-04-26 00:39 | 44.04976 | -110.10272 | 37065 ft | 406 kts | 311° |
| 2026-04-26 00:39 | 44.07072 | -110.12844 | 36843 ft | 405 kts | 314° |
| 2026-04-26 00:40 | 44.09317 | -110.15286 | 36631 ft | 407 kts | 317° |
| 2026-04-26 00:40 | 44.11657 | -110.17503 | 36408 ft | 409 kts | 321° |
| 2026-04-26 00:40 | 44.14105 | -110.19535 | 36186 ft | 411 kts | 323° |
| 2026-04-26 00:40 | 44.16615 | -110.21448 | 35925 ft | 414 kts | 324° |
| 2026-04-26 00:41 | 44.19167 | -110.23357 | 35581 ft | 414 kts | 324° |
| 2026-04-26 00:41 | 44.21702 | -110.25246 | 35139 ft | 413 kts | 324° |
| 2026-04-26 00:41 | 44.24266 | -110.27159 | 34619 ft | 413 kts | 324° |
| 2026-04-26 00:41 | 44.26789 | -110.29045 | 34066 ft | 413 kts | 324° |
| 2026-04-26 00:42 | 44.29319 | -110.30943 | 33511 ft | 415 kts | 324° |
| 2026-04-26 00:42 | 44.30180 | -110.31588 | 33324 ft | 416 kts | 324° |
| 2026-04-26 00:43 | 44.33554 | -110.34122 | 32602 ft | 415 kts | 324° |
| 2026-04-26 00:43 | 44.36091 | -110.36025 | 32137 ft | 413 kts | 324° |
| 2026-04-26 00:43 | 44.38608 | -110.37925 | 31653 ft | 409 kts | 324° |
| 2026-04-26 00:44 | 44.41122 | -110.39807 | 31140 ft | 407 kts | 323° |
| 2026-04-26 00:44 | 44.43579 | -110.41661 | 30669 ft | 404 kts | 323° |
| 2026-04-26 00:44 | 44.46053 | -110.43538 | 30009 ft | 400 kts | 324° |
| 2026-04-26 00:44 | 44.48471 | -110.45358 | 29544 ft | 393 kts | 323° |
| 2026-04-26 00:45 | 44.50885 | -110.47181 | 29258 ft | 388 kts | 323° |
| 2026-04-26 00:45 | 44.53246 | -110.48964 | 29053 ft | 386 kts | 322° |
| 2026-04-26 00:45 | 44.55620 | -110.50754 | 28695 ft | 386 kts | 321° |
| 2026-04-26 00:45 | 44.57977 | -110.52548 | 28109 ft | 385 kts | 321° |
| 2026-04-26 00:46 | 44.60337 | -110.54353 | 27574 ft | 381 kts | 322° |
| 2026-04-26 00:46 | 44.62635 | -110.56107 | 27078 ft | 378 kts | 322° |
| 2026-04-26 00:46 | 44.64952 | -110.57876 | 26571 ft | 374 kts | 322° |
| 2026-04-26 00:46 | 44.67234 | -110.59617 | 26076 ft | 369 kts | 323° |
| 2026-04-26 00:47 | 44.69459 | -110.61314 | 25574 ft | 364 kts | 323° |
| 2026-04-26 00:47 | 44.71680 | -110.63008 | 25092 ft | 358 kts | 323° |
| 2026-04-26 00:47 | 44.73838 | -110.64656 | 24648 ft | 353 kts | 324° |
| 2026-04-26 00:47 | 44.76023 | -110.66325 | 24210 ft | 347 kts | 323° |
| 2026-04-26 00:48 | 44.78144 | -110.67947 | 23778 ft | 345 kts | 324° |
| 2026-04-26 00:48 | 44.80252 | -110.69560 | 23347 ft | 342 kts | 324° |
| 2026-04-26 00:48 | 44.82340 | -110.71160 | 22927 ft | 340 kts | 324° |
| 2026-04-26 00:48 | 44.84424 | -110.72755 | 22515 ft | 338 kts | 324° |
| 2026-04-26 00:49 | 44.86487 | -110.74335 | 22111 ft | 336 kts | 324° |
| 2026-04-26 00:49 | 44.88515 | -110.75890 | 21714 ft | 334 kts | 324° |
| 2026-04-26 00:49 | 44.90565 | -110.77465 | 21311 ft | 331 kts | 324° |
| 2026-04-26 00:49 | 44.92577 | -110.79012 | 20904 ft | 328 kts | 324° |
| 2026-04-26 00:50 | 44.94568 | -110.80544 | 20496 ft | 325 kts | 324° |
| 2026-04-26 00:50 | 44.96547 | -110.82050 | 20085 ft | 323 kts | 323° |
| 2026-04-26 00:50 | 44.98511 | -110.83579 | 19680 ft | 322 kts | 324° |
| 2026-04-26 00:50 | 45.00495 | -110.85120 | 19264 ft | 321 kts | 324° |
| 2026-04-26 00:51 | 45.02436 | -110.86618 | 18862 ft | 317 kts | 325° |
| 2026-04-26 00:51 | 45.04371 | -110.88108 | 18458 ft | 316 kts | 325° |
| 2026-04-26 00:51 | 45.06311 | -110.89604 | 18053 ft | 314 kts | 325° |
| 2026-04-26 00:51 | 45.08218 | -110.91080 | 17654 ft | 311 kts | 325° |
| 2026-04-26 00:52 | 45.10083 | -110.92524 | 17274 ft | 308 kts | 325° |
| 2026-04-26 00:52 | 45.11971 | -110.93957 | 17108 ft | 300 kts | 327° |
| 2026-04-26 00:52 | 45.13887 | -110.95106 | 17100 ft | 301 kts | 334° |
| 2026-04-26 00:52 | 45.15958 | -110.95976 | 17106 ft | 313 kts | 339° |
| 2026-04-26 00:53 | 45.18092 | -110.96709 | 17110 ft | 315 kts | 341° |
| 2026-04-26 00:53 | 45.20239 | -110.97411 | 17113 ft | 316 kts | 341° |
| 2026-04-26 00:53 | 45.22388 | -110.98113 | 17125 ft | 316 kts | 341° |
| 2026-04-26 00:53 | 45.24562 | -110.98829 | 17130 ft | 316 kts | 341° |
| 2026-04-26 00:54 | 45.26704 | -110.99535 | 17150 ft | 316 kts | 341° |
| 2026-04-26 00:54 | 45.28857 | -111.00249 | 17151 ft | 316 kts | 341° |
| 2026-04-26 00:54 | 45.31007 | -111.00964 | 16897 ft | 316 kts | 341° |
| 2026-04-26 00:54 | 45.33118 | -111.01666 | 16451 ft | 316 kts | 341° |
| 2026-04-26 00:55 | 45.35256 | -111.02385 | 16010 ft | 315 kts | 341° |
| 2026-04-26 00:55 | 45.37387 | -111.03107 | 15599 ft | 313 kts | 342° |
| 2026-04-26 00:55 | 45.39523 | -111.03822 | 15222 ft | 313 kts | 342° |
| 2026-04-26 00:55 | 45.41640 | -111.04522 | 14816 ft | 313 kts | 342° |
| 2026-04-26 00:56 | 45.43776 | -111.05239 | 14378 ft | 315 kts | 342° |
| 2026-04-26 00:56 | 45.45881 | -111.05939 | 13957 ft | 312 kts | 341° |
| 2026-04-26 00:56 | 45.48007 | -111.06655 | 13501 ft | 310 kts | 341° |
| 2026-04-26 00:56 | 45.50089 | -111.07361 | 13109 ft | 305 kts | 342° |
| 2026-04-26 00:57 | 45.52143 | -111.08052 | 12993 ft | 292 kts | 342° |
| 2026-04-26 00:57 | 45.54071 | -111.08697 | 13003 ft | 278 kts | 342° |
| 2026-04-26 00:57 | 45.55969 | -111.09331 | 13033 ft | 278 kts | 342° |
| 2026-04-26 00:57 | 45.57849 | -111.09965 | 12965 ft | 280 kts | 342° |
| 2026-04-26 00:58 | 45.59743 | -111.10609 | 12690 ft | 278 kts | 343° |
| 2026-04-26 00:58 | 45.61618 | -111.11244 | 12404 ft | 276 kts | 343° |
| 2026-04-26 00:58 | 45.63437 | -111.12122 | 12049 ft | 270 kts | 326° |
| 2026-04-26 00:58 | 45.64847 | -111.13816 | 11771 ft | 260 kts | 304° |
| 2026-04-26 00:59 | 45.65860 | -111.15922 | 11517 ft | 254 kts | 301° |
| 2026-04-26 00:59 | 45.66990 | -111.17860 | 11264 ft | 253 kts | 309° |
| 2026-04-26 00:59 | 45.68202 | -111.19667 | 11005 ft | 249 kts | 310° |
| 2026-04-26 00:59 | 45.69406 | -111.21401 | 10755 ft | 245 kts | 312° |
| 2026-04-26 01:00 | 45.70612 | -111.23096 | 10515 ft | 241 kts | 313° |
| 2026-04-26 01:00 | 45.71816 | -111.24760 | 10265 ft | 240 kts | 314° |
| 2026-04-26 01:00 | 45.73014 | -111.26405 | 10014 ft | 238 kts | 314° |
| 2026-04-26 01:00 | 45.74190 | -111.28021 | 9879 ft | 229 kts | 314° |
| 2026-04-26 01:01 | 45.75321 | -111.29576 | 9682 ft | 222 kts | 314° |
| 2026-04-26 01:01 | 45.76434 | -111.31113 | 9424 ft | 218 kts | 315° |
| 2026-04-26 01:01 | 45.77586 | -111.32518 | 9146 ft | 216 kts | 328° |
| 2026-04-26 01:01 | 45.78961 | -111.33316 | 8836 ft | 215 kts | 347° |
| 2026-04-26 01:02 | 45.80447 | -111.33412 | 8514 ft | 213 kts | 7° |
| 2026-04-26 01:02 | 45.81863 | -111.32811 | 8221 ft | 209 kts | 26° |
| 2026-04-26 01:02 | 45.83033 | -111.31628 | 7926 ft | 204 kts | 45° |
| 2026-04-26 01:02 | 45.83860 | -111.30038 | 7598 ft | 199 kts | 62° |
| 2026-04-26 01:03 | 45.84298 | -111.28186 | 7218 ft | 195 kts | 79° |
| 2026-04-26 01:03 | 45.84327 | -111.26263 | 6837 ft | 193 kts | 96° |
| 2026-04-26 01:03 | 45.83975 | -111.24476 | 6520 ft | 185 kts | 112° |
| 2026-04-26 01:03 | 45.83307 | -111.22942 | 6073 ft | 177 kts | 129° |
| 2026-04-26 01:04 | 45.82470 | -111.21705 | 5704 ft | 168 kts | 136° |
| 2026-04-26 01:04 | 45.81636 | -111.20595 | 5362 ft | 160 kts | 137° |
| 2026-04-26 01:04 | 45.80853 | -111.19518 | 5014 ft | 153 kts | 136° |
| 2026-04-26 01:04 | 45.80118 | -111.18483 | 4825 ft | 143 kts | 135° |
| 2026-04-26 01:05 | 45.79420 | -111.17498 | 4666 ft | 140 kts | 135° |
| 2026-04-26 01:05 | 45.78728 | -111.16534 | 4527 ft | 138 kts | 135° |
| 2026-04-26 01:05 | 45.78068 | -111.15622 | 4480 ft | 109 kts | 134° |
| 2026-04-26 01:05 | 45.77716 | -111.15133 | 4480 ft | 49 kts | 137° |
| 2026-04-26 01:06 | 45.77566 | -111.14928 | 4481 ft | 12 kts | 139° |
| 2026-04-26 01:06 | 45.77497 | -111.14945 | 4481 ft | 10 kts | 228° |
| 2026-04-26 01:06 | 45.77449 | -111.15018 | 4481 ft | 9 kts | 225° |
| 2026-04-26 01:06 | 45.77411 | -111.15083 | 4481 ft | 7 kts | 257° |
| 2026-04-26 01:07 | 45.77432 | -111.15144 | 4481 ft | 6 kts | 312° |
| 2026-04-26 01:07 | 45.77479 | -111.15212 | 4481 ft | 14 kts | 316° |
| 2026-04-26 01:07 | 45.77565 | -111.15334 | 4481 ft | 17 kts | 315° |
| 2026-04-26 01:07 | 45.77647 | -111.15446 | 4481 ft | 15 kts | 317° |
| 2026-04-26 01:08 | 45.77720 | -111.15545 | 4481 ft | 15 kts | 316° |
| 2026-04-26 01:08 | 45.77813 | -111.15675 | 4481 ft | 18 kts | 314° |
| 2026-04-26 01:08 | 45.77898 | -111.15797 | 4481 ft | 16 kts | 319° |
| 2026-04-26 01:08 | 45.77974 | -111.15899 | 4481 ft | 14 kts | 316° |
| 2026-04-26 01:09 | 45.78033 | -111.15987 | 4481 ft | 10 kts | 297° |
| 2026-04-26 01:09 | 45.78014 | -111.16070 | 4481 ft | 7 kts | 238° |
| 2026-04-26 01:09 | 45.77995 | -111.16115 | 4481 ft | 3 kts | 233° |
| 2026-04-26 01:09 | 45.77983 | -111.16134 | 4481 ft | 1 kts | 225° |
| 2026-04-26 01:10 | 45.77974 | -111.16147 | 4481 ft | 2 kts | 225° |
| 2026-04-26 01:10 | 45.77966 | -111.16158 | 4481 ft | 0 kts | 225° |
| 2026-04-26 01:10 | 45.77963 | -111.16162 | 4481 ft | 0 kts | 225° |